sensor_id;sensor_type;location;lat;lon;timestamp;pressure;altitude;pressure_sealevel;temperature;humidity
51313;BME280;37397;53.226;10.400;2022-07-17T00:01:58;102139.84;;;17.32;48.69
51313;BME280;37397;53.226;10.400;2022-07-17T00:04:25;102141.94;;;17.31;48.91
51313;BME280;37397;53.226;10.400;2022-07-17T00:06:51;102143.72;;;17.29;48.80
51313;BME280;37397;53.226;10.400;2022-07-17T00:09:18;102144.53;;;17.29;48.97
51313;BME280;37397;53.226;10.400;2022-07-17T00:11:45;102142.16;;;17.28;48.93
51313;BME280;37397;53.226;10.400;2022-07-17T00:14:11;102141.34;;;17.27;49.10
51313;BME280;37397;53.226;10.400;2022-07-17T00:16:38;102146.03;;;17.25;49.18
51313;BME280;37397;53.226;10.400;2022-07-17T00:19:05;102143.16;;;17.25;49.05
51313;BME280;37397;53.226;10.400;2022-07-17T00:21:33;102140.75;;;17.23;49.48
51313;BME280;37397;53.226;10.400;2022-07-17T00:24:00;102148.63;;;17.23;49.02
51313;BME280;37397;53.226;10.400;2022-07-17T00:26:26;102147.03;;;17.22;49.25
51313;BME280;37397;53.226;10.400;2022-07-17T00:28:53;102142.53;;;17.21;49.30
51313;BME280;37397;53.226;10.400;2022-07-17T00:31:20;102132.81;;;17.18;49.48
51313;BME280;37397;53.226;10.400;2022-07-17T00:33:48;102142.25;;;17.19;49.46
51313;BME280;37397;53.226;10.400;2022-07-17T00:36:14;102141.94;;;17.17;49.70
51313;BME280;37397;53.226;10.400;2022-07-17T00:38:41;102140.63;;;17.18;49.55
51313;BME280;37397;53.226;10.400;2022-07-17T00:41:07;102147.72;;;17.17;49.45
51313;BME280;37397;53.226;10.400;2022-07-17T00:43:33;102149.28;;;17.18;49.73
51313;BME280;37397;53.226;10.400;2022-07-17T00:46:02;102146.91;;;17.16;49.66
51313;BME280;37397;53.226;10.400;2022-07-17T00:48:30;102136.06;;;17.11;49.73
51313;BME280;37397;53.226;10.400;2022-07-17T00:50:58;102143.94;;;17.10;49.91
51313;BME280;37397;53.226;10.400;2022-07-17T00:53:26;102145.81;;;17.13;49.87
51313;BME280;37397;53.226;10.400;2022-07-17T00:55:55;102142.94;;;17.13;49.71
51313;BME280;37397;53.226;10.400;2022-07-17T00:58:24;102144.22;;;17.12;49.96
51313;BME280;37397;53.226;10.400;2022-07-17T01:00:53;102148.41;;;17.11;50.03
51313;BME280;37397;53.226;10.400;2022-07-17T01:03:23;102138.16;;;17.10;50.03
51313;BME280;37397;53.226;10.400;2022-07-17T01:05:50;102134.16;;;17.08;49.91
51313;BME280;37397;53.226;10.400;2022-07-17T01:08:17;102138.03;;;17.05;49.88
51313;BME280;37397;53.226;10.400;2022-07-17T01:10:43;102143.31;;;17.06;49.89
51313;BME280;37397;53.226;10.400;2022-07-17T01:13:10;102141.75;;;17.05;49.93
51313;BME280;37397;53.226;10.400;2022-07-17T01:15:38;102140.13;;;17.04;50.06
51313;BME280;37397;53.226;10.400;2022-07-17T01:18:09;102138.53;;;17.03;50.10
51313;BME280;37397;53.226;10.400;2022-07-17T01:20:37;102145.31;;;17.00;50.07
51313;BME280;37397;53.226;10.400;2022-07-17T01:23:04;102135.75;;;16.94;50.21
51313;BME280;37397;53.226;10.400;2022-07-17T01:25:31;102134.44;;;16.95;50.14
51313;BME280;37397;53.226;10.400;2022-07-17T01:27:58;102137.34;;;16.95;50.25
51313;BME280;37397;53.226;10.400;2022-07-17T01:30:25;102136.44;;;16.89;50.05
51313;BME280;37397;53.226;10.400;2022-07-17T01:32:52;102124.59;;;16.87;50.19
51313;BME280;37397;53.226;10.400;2022-07-17T01:35:20;102123.97;;;16.83;50.37
51313;BME280;37397;53.226;10.400;2022-07-17T01:37:47;102145.28;;;16.85;50.20
51313;BME280;37397;53.226;10.400;2022-07-17T01:40:15;102145.44;;;16.82;50.42
51313;BME280;37397;53.226;10.400;2022-07-17T01:42:47;102150.91;;;16.80;50.39
51313;BME280;37397;53.226;10.400;2022-07-17T01:45:17;102144.81;;;16.77;50.53
51313;BME280;37397;53.226;10.400;2022-07-17T01:47:44;102148.72;;;16.74;50.47
51313;BME280;37397;53.226;10.400;2022-07-17T01:50:12;102143.44;;;16.73;50.38
51313;BME280;37397;53.226;10.400;2022-07-17T01:52:40;102148.09;;;16.70;50.65
51313;BME280;37397;53.226;10.400;2022-07-17T01:55:09;102155.63;;;16.68;50.65
51313;BME280;37397;53.226;10.400;2022-07-17T01:57:36;102147.19;;;16.64;50.79
51313;BME280;37397;53.226;10.400;2022-07-17T02:00:05;102147.19;;;16.64;50.56
51313;BME280;37397;53.226;10.400;2022-07-17T02:02:33;102144.38;;;16.55;50.65
51313;BME280;37397;53.226;10.400;2022-07-17T02:05:00;102137.81;;;16.54;50.80
51313;BME280;37397;53.226;10.400;2022-07-17T02:07:27;102144.38;;;16.55;50.91
51313;BME280;37397;53.226;10.400;2022-07-17T02:09:53;102146.16;;;16.52;50.81
51313;BME280;37397;53.226;10.400;2022-07-17T02:12:20;102140.59;;;16.49;50.71
51313;BME280;37397;53.226;10.400;2022-07-17T02:14:46;102151.28;;;16.48;50.87
51313;BME280;37397;53.226;10.400;2022-07-17T02:17:13;102154.66;;;16.47;51.03
51313;BME280;37397;53.226;10.400;2022-07-17T02:19:39;102152.97;;;16.40;51.04
51313;BME280;37397;53.226;10.400;2022-07-17T02:22:06;102162.41;;;16.40;50.99
51313;BME280;37397;53.226;10.400;2022-07-17T02:24:33;102159.22;;;16.38;51.29
51313;BME280;37397;53.226;10.400;2022-07-17T02:26:59;102153.16;;;16.36;51.17
51313;BME280;37397;53.226;10.400;2022-07-17T02:29:26;102156.72;;;16.31;51.29
51313;BME280;37397;53.226;10.400;2022-07-17T02:31:52;102154.50;;;16.26;51.20
51313;BME280;37397;53.226;10.400;2022-07-17T02:34:19;102169.50;;;16.30;51.25
51313;BME280;37397;53.226;10.400;2022-07-17T02:36:45;102157.88;;;16.25;51.27
51313;BME280;37397;53.226;10.400;2022-07-17T02:39:12;102168.56;;;16.24;51.44
51313;BME280;37397;53.226;10.400;2022-07-17T02:41:38;102179.81;;;16.22;51.29
51313;BME280;37397;53.226;10.400;2022-07-17T02:44:05;102177.41;;;16.20;51.47
51313;BME280;37397;53.226;10.400;2022-07-17T02:46:31;102173.09;;;16.16;51.44
51313;BME280;37397;53.226;10.400;2022-07-17T02:48:58;102182.53;;;16.16;51.51
51313;BME280;37397;53.226;10.400;2022-07-17T02:51:24;102177.78;;;16.13;51.57
51313;BME280;37397;53.226;10.400;2022-07-17T02:53:51;102177.94;;;16.10;51.48
51313;BME280;37397;53.226;10.400;2022-07-17T02:56:18;102172.84;;;16.04;51.67
51313;BME280;37397;53.226;10.400;2022-07-17T02:58:44;102189.16;;;16.08;51.64
51313;BME280;37397;53.226;10.400;2022-07-17T03:01:11;102180.22;;;16.06;51.73
51313;BME280;37397;53.226;10.400;2022-07-17T03:03:37;102185.03;;;15.99;51.86
51313;BME280;37397;53.226;10.400;2022-07-17T03:06:04;102179.28;;;15.99;51.81
51313;BME280;37397;53.226;10.400;2022-07-17T03:08:31;102176.09;;;15.97;51.82
51313;BME280;37397;53.226;10.400;2022-07-17T03:10:58;102193.38;;;15.97;51.72
51313;BME280;37397;53.226;10.400;2022-07-17T03:13:24;102182.50;;;15.92;51.80
51313;BME280;37397;53.226;10.400;2022-07-17T03:15:51;102192.44;;;15.91;51.80
51313;BME280;37397;53.226;10.400;2022-07-17T03:18:17;102192.13;;;15.89;52.00
51313;BME280;37397;53.226;10.400;2022-07-17T03:20:44;102194.66;;;15.87;52.02
51313;BME280;37397;53.226;10.400;2022-07-17T03:23:11;102204.59;;;15.86;52.08
51313;BME280;37397;53.226;10.400;2022-07-17T03:25:37;102200.91;;;15.85;52.04
51313;BME280;37397;53.226;10.400;2022-07-17T03:28:04;102200.78;;;15.80;52.12
51313;BME280;37397;53.226;10.400;2022-07-17T03:30:30;102207.50;;;15.77;52.05
51313;BME280;37397;53.226;10.400;2022-07-17T03:32:57;102212.31;;;15.80;52.22
51313;BME280;37397;53.226;10.400;2022-07-17T03:35:24;102204.31;;;15.75;52.28
51313;BME280;37397;53.226;10.400;2022-07-17T03:37:50;102210.06;;;15.75;52.23
51313;BME280;37397;53.226;10.400;2022-07-17T03:40:17;102207.19;;;15.75;52.27
51313;BME280;37397;53.226;10.400;2022-07-17T03:42:43;102213.41;;;15.73;52.46
51313;BME280;37397;53.226;10.400;2022-07-17T03:45:10;102203.97;;;15.73;52.52
51313;BME280;37397;53.226;10.400;2022-07-17T03:47:36;102200.47;;;15.68;52.46
51313;BME280;37397;53.226;10.400;2022-07-17T03:50:03;102194.53;;;15.72;52.53
51313;BME280;37397;53.226;10.400;2022-07-17T03:52:30;102186.38;;;15.71;52.66
51313;BME280;37397;53.226;10.400;2022-07-17T03:54:57;102188.97;;;15.68;52.60
51313;BME280;37397;53.226;10.400;2022-07-17T03:57:23;102185.59;;;15.70;52.72
51313;BME280;37397;53.226;10.400;2022-07-17T03:59:50;102168.00;;;15.68;52.85
51313;BME280;37397;53.226;10.400;2022-07-17T04:02:16;102158.56;;;15.67;52.82
51313;BME280;37397;53.226;10.400;2022-07-17T04:04:43;102164.34;;;15.67;52.78
51313;BME280;37397;53.226;10.400;2022-07-17T04:07:09;102159.22;;;15.72;52.85
51313;BME280;37397;53.226;10.400;2022-07-17T04:09:55;102172.47;;;15.69;53.00
51313;BME280;37397;53.226;10.400;2022-07-17T04:12:22;102179.03;;;15.69;53.05
51313;BME280;37397;53.226;10.400;2022-07-17T04:14:49;102168.50;;;15.66;53.16
51313;BME280;37397;53.226;10.400;2022-07-17T04:17:16;102180.34;;;15.68;53.17
51313;BME280;37397;53.226;10.400;2022-07-17T04:19:43;102188.00;;;15.72;53.21
51313;BME280;37397;53.226;10.400;2022-07-17T04:22:09;102190.41;;;15.73;53.08
51313;BME280;37397;53.226;10.400;2022-07-17T04:24:36;102197.72;;;15.74;53.21
51313;BME280;37397;53.226;10.400;2022-07-17T04:27:02;102203.00;;;15.76;53.25
51313;BME280;37397;53.226;10.400;2022-07-17T04:29:29;102201.75;;;15.77;53.26
51313;BME280;37397;53.226;10.400;2022-07-17T04:31:55;102201.75;;;15.77;53.25
51313;BME280;37397;53.226;10.400;2022-07-17T04:34:22;102209.91;;;15.78;53.23
51313;BME280;37397;53.226;10.400;2022-07-17T04:36:48;102198.22;;;15.73;53.38
51313;BME280;37397;53.226;10.400;2022-07-17T04:39:15;102197.59;;;15.78;53.35
51313;BME280;37397;53.226;10.400;2022-07-17T04:41:41;102196.31;;;15.79;53.33
51313;BME280;37397;53.226;10.400;2022-07-17T04:44:08;102206.06;;;15.81;53.39
51313;BME280;37397;53.226;10.400;2022-07-17T04:46:34;102207.97;;;15.84;53.52
51313;BME280;37397;53.226;10.400;2022-07-17T04:49:01;102204.59;;;15.86;53.40
51313;BME280;37397;53.226;10.400;2022-07-17T04:51:28;102207.00;;;15.88;53.32
51313;BME280;37397;53.226;10.400;2022-07-17T04:53:55;102206.19;;;15.87;53.31
51313;BME280;37397;53.226;10.400;2022-07-17T04:56:21;102209.69;;;15.91;53.42
51313;BME280;37397;53.226;10.400;2022-07-17T04:58:48;102207.13;;;15.93;53.38
51313;BME280;37397;53.226;10.400;2022-07-17T05:01:14;102212.72;;;15.97;53.41
51313;BME280;37397;53.226;10.400;2022-07-17T05:03:41;102213.03;;;15.99;53.54
51313;BME280;37397;53.226;10.400;2022-07-17T05:06:07;102216.22;;;16.01;53.31
51313;BME280;37397;53.226;10.400;2022-07-17T05:08:34;102207.09;;;16.02;53.50
51313;BME280;37397;53.226;10.400;2022-07-17T05:11:01;102194.94;;;15.98;53.30
51313;BME280;37397;53.226;10.400;2022-07-17T05:13:31;102193.31;;;16.07;53.45
51313;BME280;37397;53.226;10.400;2022-07-17T05:15:58;102193.31;;;16.07;53.43
51313;BME280;37397;53.226;10.400;2022-07-17T05:18:25;102198.44;;;16.12;53.50
51313;BME280;37397;53.226;10.400;2022-07-17T05:20:51;102194.25;;;16.13;53.36
51313;BME280;37397;53.226;10.400;2022-07-17T05:23:17;102199.34;;;16.18;53.46
51313;BME280;37397;53.226;10.400;2022-07-17T05:25:44;102177.91;;;16.19;53.28
51313;BME280;37397;53.226;10.400;2022-07-17T05:28:11;102180.09;;;16.24;53.48
51313;BME280;37397;53.226;10.400;2022-07-17T05:30:37;102188.75;;;16.24;53.39
51313;BME280;37397;53.226;10.400;2022-07-17T05:33:04;102193.84;;;16.29;53.41
51313;BME280;37397;53.226;10.400;2022-07-17T05:35:30;102201.50;;;16.32;53.32
51313;BME280;37397;53.226;10.400;2022-07-17T05:37:57;102191.75;;;16.30;53.42
51313;BME280;37397;53.226;10.400;2022-07-17T05:40:24;102202.13;;;16.36;53.56
51313;BME280;37397;53.226;10.400;2022-07-17T05:42:52;102201.16;;;16.39;53.38
51313;BME280;37397;53.226;10.400;2022-07-17T05:45:19;102200.19;;;16.43;53.36
51313;BME280;37397;53.226;10.400;2022-07-17T05:47:45;102199.19;;;16.46;53.20
51313;BME280;37397;53.226;10.400;2022-07-17T05:50:12;102202.38;;;16.48;53.30
51313;BME280;37397;53.226;10.400;2022-07-17T05:52:38;102203.16;;;16.48;53.16
51313;BME280;37397;53.226;10.400;2022-07-17T05:55:05;102211.94;;;16.54;53.04
51313;BME280;37397;53.226;10.400;2022-07-17T05:57:32;102208.78;;;16.52;53.17
51313;BME280;37397;53.226;10.400;2022-07-17T05:59:59;102222.50;;;16.57;53.21
51313;BME280;37397;53.226;10.400;2022-07-17T06:02:25;102214.84;;;16.54;53.04
51313;BME280;37397;53.226;10.400;2022-07-17T06:04:52;102228.88;;;16.61;52.95
51313;BME280;37397;53.226;10.400;2022-07-17T06:07:18;102230.78;;;16.64;53.08
51313;BME280;37397;53.226;10.400;2022-07-17T06:09:45;102225.63;;;16.68;53.00
51313;BME280;37397;53.226;10.400;2022-07-17T06:12:11;102222.75;;;16.68;52.91
51313;BME280;37397;53.226;10.400;2022-07-17T06:14:38;102220.78;;;16.74;52.83
51313;BME280;37397;53.226;10.400;2022-07-17T06:17:04;102222.84;;;16.74;52.82
51313;BME280;37397;53.226;10.400;2022-07-17T06:19:31;102220.78;;;16.74;52.99
51313;BME280;37397;53.226;10.400;2022-07-17T06:21:57;102215.63;;;16.78;52.86
51313;BME280;37397;53.226;10.400;2022-07-17T06:24:24;102220.41;;;16.82;52.79
51313;BME280;37397;53.226;10.400;2022-07-17T06:26:51;102226.00;;;16.85;52.77
51313;BME280;37397;53.226;10.400;2022-07-17T06:29:18;102223.44;;;16.87;52.59
51313;BME280;37397;53.226;10.400;2022-07-17T06:31:44;102223.44;;;16.87;52.96
51313;BME280;37397;53.226;10.400;2022-07-17T06:34:11;102224.53;;;16.90;52.83
51313;BME280;37397;53.226;10.400;2022-07-17T06:36:37;102232.50;;;16.95;52.53
51313;BME280;37397;53.226;10.400;2022-07-17T06:39:04;102233.00;;;16.93;52.98
51313;BME280;37397;53.226;10.400;2022-07-17T06:41:30;102236.00;;;16.99;52.91
51313;BME280;37397;53.226;10.400;2022-07-17T06:43:57;102237.13;;;17.02;52.99
51313;BME280;37397;53.226;10.400;2022-07-17T06:46:23;102232.94;;;17.03;53.46
51313;BME280;37397;53.226;10.400;2022-07-17T06:48:50;102238.81;;;17.08;53.15
51313;BME280;37397;53.226;10.400;2022-07-17T06:51:20;102238.63;;;17.12;53.07
51313;BME280;37397;53.226;10.400;2022-07-17T06:53:46;102250.47;;;17.14;53.16
51313;BME280;37397;53.226;10.400;2022-07-17T06:56:13;102243.72;;;17.17;52.90
51313;BME280;37397;53.226;10.400;2022-07-17T06:58:40;102245.81;;;17.17;53.29
51313;BME280;37397;53.226;10.400;2022-07-17T07:01:06;102247.88;;;17.16;53.20
51313;BME280;37397;53.226;10.400;2022-07-17T07:03:33;102240.94;;;17.23;53.12
51313;BME280;37397;53.226;10.400;2022-07-17T07:05:59;102253.38;;;17.29;52.95
51313;BME280;37397;53.226;10.400;2022-07-17T07:08:26;102252.88;;;17.30;53.08
51313;BME280;37397;53.226;10.400;2022-07-17T07:10:52;102260.56;;;17.34;53.01
51313;BME280;37397;53.226;10.400;2022-07-17T07:13:19;102258.78;;;17.36;52.95
51313;BME280;37397;53.226;10.400;2022-07-17T07:15:46;102261.47;;;17.40;52.95
51313;BME280;37397;53.226;10.400;2022-07-17T07:18:14;102262.56;;;17.42;52.90
51313;BME280;37397;53.226;10.400;2022-07-17T07:20:40;102257.78;;;17.39;52.85
51313;BME280;37397;53.226;10.400;2022-07-17T07:23:07;102266.53;;;17.45;52.98
51313;BME280;37397;53.226;10.400;2022-07-17T07:25:34;102266.03;;;17.46;52.87
51313;BME280;37397;53.226;10.400;2022-07-17T07:28:02;102267.16;;;17.49;52.95
51313;BME280;37397;53.226;10.400;2022-07-17T07:30:29;102263.56;;;17.54;52.88
51313;BME280;37397;53.226;10.400;2022-07-17T07:32:55;102274.81;;;17.52;53.12
51313;BME280;37397;53.226;10.400;2022-07-17T07:35:22;102280.69;;;17.58;52.51
51313;BME280;37397;53.226;10.400;2022-07-17T07:37:49;102275.53;;;17.62;52.26
51313;BME280;37397;53.226;10.400;2022-07-17T07:40:16;102281.00;;;17.60;52.65
51313;BME280;37397;53.226;10.400;2022-07-17T07:42:42;102278.72;;;17.64;52.56
51313;BME280;37397;53.226;10.400;2022-07-17T07:45:09;102279.31;;;17.68;52.56
51313;BME280;37397;53.226;10.400;2022-07-17T07:47:47;102281.91;;;17.66;52.91
51313;BME280;37397;53.226;10.400;2022-07-17T07:50:14;102274.34;;;17.68;52.70
51313;BME280;37397;53.226;10.400;2022-07-17T07:52:41;102271.25;;;17.72;52.57
51313;BME280;37397;53.226;10.400;2022-07-17T07:55:09;102280.22;;;17.74;52.85
51313;BME280;37397;53.226;10.400;2022-07-17T07:57:45;102275.31;;;17.80;53.08
51313;BME280;37397;53.226;10.400;2022-07-17T08:00:12;102271.94;;;17.82;52.95
51313;BME280;37397;53.226;10.400;2022-07-17T08:02:38;102275.94;;;17.84;52.84
51313;BME280;37397;53.226;10.400;2022-07-17T08:05:05;102273.97;;;17.91;52.88
51313;BME280;37397;53.226;10.400;2022-07-17T08:07:34;102276.16;;;17.96;52.81
51313;BME280;37397;53.226;10.400;2022-07-17T08:10:02;102284.13;;;18.01;52.66
51313;BME280;37397;53.226;10.400;2022-07-17T08:12:29;102276.75;;;18.00;52.94
51313;BME280;37397;53.226;10.400;2022-07-17T08:15:15;102292.41;;;18.08;52.76
51313;BME280;37397;53.226;10.400;2022-07-17T08:17:43;102284.09;;;18.16;52.43
51313;BME280;37397;53.226;10.400;2022-07-17T08:20:12;102289.72;;;18.19;52.65
51313;BME280;37397;53.226;10.400;2022-07-17T08:22:41;102297.38;;;18.22;52.83
51313;BME280;37397;53.226;10.400;2022-07-17T08:25:29;102291.59;;;18.22;52.39
51313;BME280;37397;53.226;10.400;2022-07-17T08:27:55;102309.31;;;18.30;52.37
51313;BME280;37397;53.226;10.400;2022-07-17T08:30:22;102309.13;;;18.34;52.26
51313;BME280;37397;53.226;10.400;2022-07-17T08:32:48;102298.84;;;18.33;52.25
51313;BME280;37397;53.226;10.400;2022-07-17T08:35:15;102304.19;;;18.40;52.17
51313;BME280;37397;53.226;10.400;2022-07-17T08:40:24;102301.63;;;18.42;52.13
51313;BME280;37397;53.226;10.400;2022-07-17T08:42:53;102306.97;;;18.49;52.23
51313;BME280;37397;53.226;10.400;2022-07-17T08:45:20;102306.75;;;18.53;52.02
51313;BME280;37397;53.226;10.400;2022-07-17T08:47:50;102310.53;;;18.59;51.73
51313;BME280;37397;53.226;10.400;2022-07-17T08:50:21;102319.50;;;18.61;51.78
51313;BME280;37397;53.226;10.400;2022-07-17T08:52:49;102315.25;;;18.56;52.24
51313;BME280;37397;53.226;10.400;2022-07-17T08:55:16;102323.78;;;18.66;52.05
51313;BME280;37397;53.226;10.400;2022-07-17T08:57:44;102319.38;;;18.70;52.00
51313;BME280;37397;53.226;10.400;2022-07-17T09:00:14;102312.88;;;18.75;51.91
51313;BME280;37397;53.226;10.400;2022-07-17T09:03:03;102319.47;;;18.76;51.90
51313;BME280;37397;53.226;10.400;2022-07-17T09:05:35;102310.09;;;18.81;51.57
51313;BME280;37397;53.226;10.400;2022-07-17T09:08:03;102317.09;;;18.74;52.37
51313;BME280;37397;53.226;10.400;2022-07-17T09:10:44;102323.38;;;18.73;52.41
51313;BME280;37397;53.226;10.400;2022-07-17T09:15:50;102313.91;;;18.87;52.02
51313;BME280;37397;53.226;10.400;2022-07-17T09:18:17;102309.69;;;18.88;51.57
51313;BME280;37397;53.226;10.400;2022-07-17T09:20:51;102314.56;;;18.97;51.44
51313;BME280;37397;53.226;10.400;2022-07-17T09:23:18;102306.94;;;19.00;51.38
51313;BME280;37397;53.226;10.400;2022-07-17T09:25:50;102310.66;;;19.00;51.62
51313;BME280;37397;53.226;10.400;2022-07-17T09:28:18;102311.53;;;19.06;51.43
51313;BME280;37397;53.226;10.400;2022-07-17T09:30:50;102306.03;;;19.08;51.71
51313;BME280;37397;53.226;10.400;2022-07-17T09:33:27;102308.19;;;19.13;51.31
51313;BME280;37397;53.226;10.400;2022-07-17T09:35:57;102305.50;;;19.10;51.59
51313;BME280;37397;53.226;10.400;2022-07-17T09:38:32;102315.06;;;19.16;51.43
51313;BME280;37397;53.226;10.400;2022-07-17T09:44:00;102306.16;;;19.20;51.17
51313;BME280;37397;53.226;10.400;2022-07-17T09:46:31;102304.94;;;19.26;50.94
51313;BME280;37397;53.226;10.400;2022-07-17T09:49:01;102322.75;;;19.19;51.29
51313;BME280;37397;53.226;10.400;2022-07-17T09:51:33;102319.47;;;19.32;51.02
51313;BME280;37397;53.226;10.400;2022-07-17T09:54:03;102317.66;;;19.35;50.99
51313;BME280;37397;53.226;10.400;2022-07-17T09:56:31;102320.56;;;19.35;50.88
51313;BME280;37397;53.226;10.400;2022-07-17T09:59:04;102312.22;;;19.42;50.69
51313;BME280;37397;53.226;10.400;2022-07-17T10:01:32;102315.63;;;19.41;51.04
51313;BME280;37397;53.226;10.400;2022-07-17T10:03:59;102312.22;;;19.42;50.67
51313;BME280;37397;53.226;10.400;2022-07-17T10:06:27;102308.09;;;19.49;50.69
51313;BME280;37397;53.226;10.400;2022-07-17T10:08:55;102312.59;;;19.50;50.44
51313;BME280;37397;53.226;10.400;2022-07-17T10:11:25;102305.97;;;19.49;50.45
51313;BME280;37397;53.226;10.400;2022-07-17T10:13:53;102317.34;;;19.53;50.68
51313;BME280;37397;53.226;10.400;2022-07-17T10:16:28;102317.56;;;19.49;50.57
51313;BME280;37397;53.226;10.400;2022-07-17T10:18:57;102328.34;;;19.49;50.48
51313;BME280;37397;53.226;10.400;2022-07-17T10:21:26;102325.97;;;19.47;49.70
51313;BME280;37397;53.226;10.400;2022-07-17T10:29:06;102310.09;;;19.63;49.60
51313;BME280;37397;53.226;10.400;2022-07-17T10:31:33;102311.34;;;19.57;49.85
51313;BME280;37397;53.226;10.400;2022-07-17T10:34:03;102316.25;;;19.50;49.71
51313;BME280;37397;53.226;10.400;2022-07-17T10:36:38;102317.91;;;19.57;48.99
51313;BME280;37397;53.226;10.400;2022-07-17T10:39:19;102316.38;;;19.62;49.29
51313;BME280;37397;53.226;10.400;2022-07-17T10:41:57;102310.66;;;19.67;48.88
51313;BME280;37397;53.226;10.400;2022-07-17T10:44:29;102305.44;;;19.72;48.88
51313;BME280;37397;53.226;10.400;2022-07-17T10:46:56;102300.25;;;19.76;49.07
51313;BME280;37397;53.226;10.400;2022-07-17T10:49:25;102307.81;;;19.73;49.16
51313;BME280;37397;53.226;10.400;2022-07-17T10:51:52;102300.25;;;19.76;48.76
51313;BME280;37397;53.226;10.400;2022-07-17T10:54:20;102300.56;;;19.83;49.06
51313;BME280;37397;53.226;10.400;2022-07-17T10:57:00;102302.50;;;19.92;48.89
51313;BME280;37397;53.226;10.400;2022-07-17T10:59:29;102291.69;;;19.93;49.02
51313;BME280;37397;53.226;10.400;2022-07-17T11:01:56;102290.34;;;19.88;48.68
51313;BME280;37397;53.226;10.400;2022-07-17T11:04:23;102297.75;;;19.89;48.37
51313;BME280;37397;53.226;10.400;2022-07-17T11:06:51;102288.78;;;19.87;48.32
51313;BME280;37397;53.226;10.400;2022-07-17T11:09:18;102286.50;;;19.97;48.16
51313;BME280;37397;53.226;10.400;2022-07-17T11:11:50;102285.22;;;20.03;48.45
51313;BME280;37397;53.226;10.400;2022-07-17T11:14:22;102288.88;;;19.98;48.26
51313;BME280;37397;53.226;10.400;2022-07-17T11:16:50;102288.88;;;19.98;47.96
51313;BME280;37397;53.226;10.400;2022-07-17T11:19:31;102288.56;;;19.96;48.21
51313;BME280;37397;53.226;10.400;2022-07-17T11:21:59;102286.53;;;20.02;47.59
51313;BME280;37397;53.226;10.400;2022-07-17T11:24:39;102286.59;;;20.08;47.70
51313;BME280;37397;53.226;10.400;2022-07-17T11:27:09;102286.34;;;20.12;47.74
51313;BME280;37397;53.226;10.400;2022-07-17T11:29:39;102285.06;;;20.13;48.11
51313;BME280;37397;53.226;10.400;2022-07-17T11:32:07;102272.97;;;20.20;48.08
51313;BME280;37397;53.226;10.400;2022-07-17T11:34:34;102274.00;;;20.17;48.29
51313;BME280;37397;53.226;10.400;2022-07-17T11:37:05;102269.22;;;20.14;48.01
51313;BME280;37397;53.226;10.400;2022-07-17T11:39:39;102265.63;;;20.25;47.82
51313;BME280;37397;53.226;10.400;2022-07-17T11:42:15;102266.72;;;20.27;48.02
51313;BME280;37397;53.226;10.400;2022-07-17T11:44:43;102264.34;;;20.31;47.82
51313;BME280;37397;53.226;10.400;2022-07-17T11:47:20;102253.34;;;20.35;47.95
51313;BME280;37397;53.226;10.400;2022-07-17T11:49:46;102256.25;;;20.41;47.79
51313;BME280;37397;53.226;10.400;2022-07-17T11:52:18;102257.06;;;20.42;47.73
51313;BME280;37397;53.226;10.400;2022-07-17T11:54:55;102261.25;;;20.40;47.72
51313;BME280;37397;53.226;10.400;2022-07-17T11:57:25;102259.44;;;20.43;47.57
51313;BME280;37397;53.226;10.400;2022-07-17T11:59:52;102264.69;;;20.45;47.70
51313;BME280;37397;53.226;10.400;2022-07-17T12:02:22;102263.66;;;20.42;47.67
51313;BME280;37397;53.226;10.400;2022-07-17T12:04:57;102266.88;;;20.50;47.29
51313;BME280;37397;53.226;10.400;2022-07-17T12:07:38;102258.44;;;20.52;47.51
51313;BME280;37397;53.226;10.400;2022-07-17T12:10:16;102265.53;;;20.51;47.21
51313;BME280;37397;53.226;10.400;2022-07-17T12:13:13;102254.47;;;20.49;47.25
51313;BME280;37397;53.226;10.400;2022-07-17T12:15:44;102264.25;;;20.52;47.03
51313;BME280;37397;53.226;10.400;2022-07-17T12:18:25;102253.41;;;20.47;46.48
51313;BME280;37397;53.226;10.400;2022-07-17T12:20:56;102254.53;;;20.61;46.30
51313;BME280;37397;53.226;10.400;2022-07-17T12:23:37;102264.59;;;20.65;46.57
51313;BME280;37397;53.226;10.400;2022-07-17T12:28:30;102252.53;;;20.72;46.82
51313;BME280;37397;53.226;10.400;2022-07-17T12:30:57;102242.78;;;20.75;46.80
51313;BME280;37397;53.226;10.400;2022-07-17T12:33:24;102251.50;;;20.75;46.78
51313;BME280;37397;53.226;10.400;2022-07-17T12:35:51;102252.03;;;20.80;46.68
51313;BME280;37397;53.226;10.400;2022-07-17T12:38:18;102240.47;;;20.85;46.73
51313;BME280;37397;53.226;10.400;2022-07-17T12:40:44;102245.75;;;20.87;46.92
51313;BME280;37397;53.226;10.400;2022-07-17T12:43:11;102242.59;;;20.90;46.77
51313;BME280;37397;53.226;10.400;2022-07-17T12:45:38;102246.78;;;20.89;46.75
51313;BME280;37397;53.226;10.400;2022-07-17T12:48:04;102238.66;;;20.99;46.57
51313;BME280;37397;53.226;10.400;2022-07-17T12:50:31;102239.16;;;20.98;46.66
51313;BME280;37397;53.226;10.400;2022-07-17T12:52:58;102237.34;;;21.00;46.55
51313;BME280;37397;53.226;10.400;2022-07-17T12:55:27;102226.28;;;21.04;46.35
51313;BME280;37397;53.226;10.400;2022-07-17T12:57:54;102227.03;;;20.93;46.37
51313;BME280;37397;53.226;10.400;2022-07-17T13:00:21;102250.56;;;21.01;44.65
51313;BME280;37397;53.226;10.400;2022-07-17T13:02:47;102235.78;;;21.10;45.15